createdAt,value
2019-05-25T00:00:23.438Z,1000.17
2019-05-25T00:01:23.602Z,1000.15
2019-05-25T00:02:23.381Z,1000.13
2019-05-25T00:03:23.364Z,1000.16
2019-05-25T00:04:23.350Z,1000.16
2019-05-25T00:05:23.332Z,1000.14
2019-05-25T00:06:23.329Z,1000.13
2019-05-25T00:07:23.310Z,1000.10
2019-05-25T00:08:23.289Z,1000.09
2019-05-25T00:09:23.275Z,1000.08
2019-05-25T00:10:23.257Z,1000.09
2019-05-25T00:11:23.237Z,1000.07
2019-05-25T00:12:23.231Z,1000.11
2019-05-25T00:13:23.208Z,1000.09
2019-05-25T00:14:23.194Z,1000.09
2019-05-25T00:15:23.179Z,1000.11
2019-05-25T00:16:23.162Z,1000.08
2019-05-25T00:17:23.145Z,1000.09
2019-05-25T00:18:23.128Z,1000.13
2019-05-25T00:19:23.113Z,1000.13
2019-05-25T00:20:23.097Z,1000.14
2019-05-25T00:21:23.082Z,1000.11
2019-05-25T00:22:23.066Z,1000.12
2019-05-25T00:23:23.050Z,1000.15
2019-05-25T00:24:23.035Z,1000.15
2019-05-25T00:25:23.018Z,1000.12
2019-05-25T00:26:23.004Z,1000.15
2019-05-25T00:27:22.979Z,1000.18
2019-05-25T00:28:22.971Z,1000.14
2019-05-25T00:29:22.954Z,1000.12
2019-05-25T00:30:22.940Z,1000.17
2019-05-25T00:31:22.920Z,1000.19
2019-05-25T00:32:22.911Z,1000.16
2019-05-25T00:33:22.888Z,1000.17
2019-05-25T00:34:22.875Z,1000.18
2019-05-25T00:35:22.861Z,1000.16
2019-05-25T00:36:22.844Z,1000.16
2019-05-25T00:37:22.823Z,1000.21
2019-05-25T00:38:22.938Z,1000.21
2019-05-25T00:39:22.793Z,1000.17
2019-05-25T00:40:22.971Z,1000.18
2019-05-25T00:41:22.763Z,1000.23
2019-05-25T00:42:22.744Z,1000.24
2019-05-25T00:43:22.732Z,1000.27
2019-05-25T00:44:22.711Z,1000.17
2019-05-25T00:45:22.694Z,1000.15
2019-05-25T00:46:22.682Z,1000.16
2019-05-25T00:47:22.663Z,1000.17
2019-05-25T00:48:22.656Z,1000.10
2019-05-25T00:49:22.853Z,1000.14
2019-05-25T00:50:22.804Z,1000.12
2019-05-25T00:51:22.599Z,1000.15
2019-05-25T00:52:22.586Z,1000.15
2019-05-25T00:53:22.567Z,1000.14
2019-05-25T00:54:28.095Z,1000.15
2019-05-25T00:55:22.532Z,1000.17
2019-05-25T00:56:22.516Z,1000.15
2019-05-25T00:57:22.499Z,1000.15
2019-05-25T00:58:22.484Z,1000.15
2019-05-25T00:59:22.466Z,1000.13
2019-05-25T01:00:22.449Z,1000.11
2019-05-25T01:01:24.458Z,1000.12
2019-05-25T01:02:22.418Z,1000.12
2019-05-25T01:03:22.404Z,1000.09
2019-05-25T01:04:22.387Z,1000.08
2019-05-25T01:05:22.388Z,1000.11
2019-05-25T01:06:22.353Z,1000.13
2019-05-25T01:07:22.343Z,1000.11
2019-05-25T01:08:22.320Z,1000.15
2019-05-25T01:09:22.303Z,1000.14
2019-05-25T01:10:22.289Z,1000.18
2019-05-25T01:11:22.274Z,1000.12
2019-05-25T01:12:22.253Z,1000.13
2019-05-25T01:13:22.239Z,1000.18
2019-05-25T01:14:22.225Z,1000.15
2019-05-25T01:15:22.198Z,1000.18
2019-05-25T01:16:22.189Z,1000.22
2019-05-25T01:17:22.172Z,1000.22
2019-05-25T01:18:22.166Z,1000.19
2019-05-25T01:19:22.140Z,1000.19
2019-05-25T01:20:22.123Z,1000.19
2019-05-25T01:21:22.104Z,1000.17
2019-05-25T01:22:22.090Z,1000.18
2019-05-25T01:23:22.076Z,1000.22
2019-05-25T01:24:22.096Z,1000.17
2019-05-25T01:25:22.042Z,1000.22
2019-05-25T01:26:22.023Z,1000.23
2019-05-25T01:27:22.009Z,1000.21
2019-05-25T01:28:21.989Z,1000.25
2019-05-25T01:29:21.974Z,1000.24
2019-05-25T01:30:21.960Z,1000.23
2019-05-25T01:31:21.943Z,1000.23
2019-05-25T01:32:21.923Z,1000.30
2019-05-25T01:33:21.906Z,1000.25
2019-05-25T01:34:21.903Z,1000.27
2019-05-25T01:35:21.880Z,1000.25
2019-05-25T01:36:21.859Z,1000.28
2019-05-25T01:37:21.843Z,1000.28
2019-05-25T01:38:21.830Z,1000.28
2019-05-25T01:39:21.809Z,1000.28
2019-05-25T01:40:21.789Z,1000.32
2019-05-25T01:41:21.778Z,1000.30
2019-05-25T01:42:21.760Z,1000.29
2019-05-25T01:43:21.743Z,1000.32
2019-05-25T01:44:21.725Z,1000.30
2019-05-25T01:45:21.705Z,1000.33
2019-05-25T01:46:21.690Z,1000.33
2019-05-25T01:47:21.674Z,1000.36
2019-05-25T01:48:28.398Z,1000.34
2019-05-25T01:49:21.653Z,1000.36
2019-05-25T01:50:21.652Z,1000.40
2019-05-25T01:51:21.610Z,1000.37
2019-05-25T01:52:21.591Z,1000.36
2019-05-25T01:53:21.573Z,1000.34
2019-05-25T01:54:21.558Z,1000.38
2019-05-25T01:55:21.540Z,1000.38
2019-05-25T01:56:21.523Z,1000.39
2019-05-25T01:57:21.708Z,1000.34
2019-05-25T01:58:21.680Z,1000.32
2019-05-25T01:59:21.660Z,1000.37
2019-05-25T02:00:21.665Z,1000.36
2019-05-25T02:01:21.447Z,1000.34
2019-05-25T02:02:21.422Z,1000.33
2019-05-25T02:03:21.406Z,1000.31
2019-05-25T02:04:21.390Z,1000.36
2019-05-25T02:05:21.374Z,1000.29
2019-05-25T02:06:21.359Z,1000.31
2019-05-25T02:07:21.338Z,1000.27
2019-05-25T02:08:21.321Z,1000.30
2019-05-25T02:09:21.309Z,1000.28
2019-05-25T02:10:21.290Z,1000.33
2019-05-25T02:11:21.273Z,1000.33
2019-05-25T02:12:21.257Z,1000.32
2019-05-25T02:13:21.256Z,1000.34
2019-05-25T02:14:21.226Z,1000.34
2019-05-25T02:15:21.211Z,1000.34
2019-05-25T02:16:21.189Z,1000.33
2019-05-25T02:17:21.172Z,1000.32
2019-05-25T02:18:21.177Z,1000.33
2019-05-25T02:19:21.137Z,1000.38
2019-05-25T02:20:21.123Z,1000.36
2019-05-25T02:21:21.106Z,1000.40
2019-05-25T02:22:21.087Z,1000.37
2019-05-25T02:23:21.075Z,1000.37
2019-05-25T02:24:21.054Z,1000.35
2019-05-25T02:25:21.042Z,1000.35
2019-05-25T02:26:21.032Z,1000.37
2019-05-25T02:27:21.003Z,1000.35
2019-05-25T02:28:20.984Z,1000.34
2019-05-25T02:29:20.969Z,1000.38
2019-05-25T02:30:20.952Z,1000.38
2019-05-25T02:31:20.939Z,1000.38
2019-05-25T02:32:20.921Z,1000.39
2019-05-25T02:33:20.902Z,1000.39
2019-05-25T02:34:20.883Z,1000.43
2019-05-25T02:35:20.872Z,1000.36
2019-05-25T02:36:21.033Z,1000.37
2019-05-25T02:37:20.839Z,1000.36
2019-05-25T02:38:20.818Z,1000.36
2019-05-25T02:39:20.802Z,1000.34
2019-05-25T02:40:20.785Z,1000.32
2019-05-25T02:41:20.788Z,1000.29
2019-05-25T02:42:20.755Z,1000.37
2019-05-25T02:43:20.731Z,1000.34
2019-05-25T02:44:20.716Z,1000.37
2019-05-25T02:45:20.877Z,1000.34
2019-05-25T02:46:20.844Z,1000.42
2019-05-25T02:47:20.853Z,1000.40
2019-05-25T02:48:20.839Z,1000.40
2019-05-25T02:49:20.630Z,1000.38
2019-05-25T02:50:20.613Z,1000.40
2019-05-25T02:51:20.601Z,1000.39
2019-05-25T02:52:20.578Z,1000.41
2019-05-25T02:53:20.564Z,1000.39
2019-05-25T02:54:20.548Z,1000.42
2019-05-25T02:55:33.947Z,1000.38
2019-05-25T02:56:20.510Z,1000.43
2019-05-25T02:57:20.488Z,1000.38
2019-05-25T02:58:20.477Z,1000.45
2019-05-25T02:59:20.641Z,1000.45
2019-05-25T03:00:20.541Z,1000.44
2019-05-25T03:01:20.426Z,1000.43
2019-05-25T03:02:20.409Z,1000.42
2019-05-25T03:03:20.393Z,1000.38
2019-05-25T03:04:20.377Z,1000.39
2019-05-25T03:05:20.358Z,1000.45
2019-05-25T03:06:20.339Z,1000.39
2019-05-25T03:07:20.323Z,1000.38
2019-05-25T03:08:20.310Z,1000.43
2019-05-25T03:09:20.474Z,1000.43
2019-05-25T03:10:20.324Z,1000.42
2019-05-25T03:11:20.367Z,1000.41
2019-05-25T03:12:20.424Z,1000.43
2019-05-25T03:13:20.222Z,1000.41
2019-05-25T03:14:20.207Z,1000.45
2019-05-25T03:15:20.189Z,1000.43
2019-05-25T03:16:20.181Z,1000.43
2019-05-25T03:17:20.152Z,1000.44
2019-05-25T03:18:20.136Z,1000.44
2019-05-25T03:19:20.119Z,1000.45
2019-05-25T03:20:20.103Z,1000.44
2019-05-25T03:21:20.099Z,1000.41
2019-05-25T03:22:20.071Z,1000.46
2019-05-25T03:23:20.052Z,1000.49
2019-05-25T03:24:20.240Z,1000.51
2019-05-25T03:25:20.203Z,1000.50
2019-05-25T03:26:20.002Z,1000.53
2019-05-25T03:27:19.983Z,1000.49
2019-05-25T03:28:19.969Z,1000.50
2019-05-25T03:29:19.947Z,1000.51
2019-05-25T03:30:19.932Z,1000.52
2019-05-25T03:31:19.915Z,1000.55
2019-05-25T03:32:19.893Z,1000.50
2019-05-25T03:33:19.883Z,1000.51
2019-05-25T03:34:19.869Z,1000.52
2019-05-25T03:35:19.845Z,1000.50
2019-05-25T03:36:19.830Z,1000.52
2019-05-25T03:37:19.812Z,1000.54
2019-05-25T03:38:19.824Z,1000.53
2019-05-25T03:39:19.778Z,1000.53
2019-05-25T03:40:19.758Z,1000.49
2019-05-25T03:41:19.746Z,1000.53
2019-05-25T03:42:19.727Z,1000.52
2019-05-25T03:43:19.709Z,1000.56
2019-05-25T03:44:19.692Z,1000.56
2019-05-25T03:45:19.678Z,1000.56
2019-05-25T03:46:19.659Z,1000.58
2019-05-25T03:47:19.660Z,1000.59
2019-05-25T03:48:19.624Z,1000.59
2019-05-25T03:49:19.605Z,1000.62
2019-05-25T03:50:19.591Z,1000.64
2019-05-25T03:51:19.573Z,1000.66
2019-05-25T03:52:19.555Z,1000.65
2019-05-25T03:53:19.537Z,1000.66
2019-05-25T03:54:19.524Z,1000.68
2019-05-25T03:55:19.505Z,1000.67
2019-05-25T03:56:19.494Z,1000.66
2019-05-25T03:57:19.475Z,1000.71
2019-05-25T03:58:19.453Z,1000.73
2019-05-25T03:59:19.437Z,1000.70
2019-05-25T04:00:19.417Z,1000.72
2019-05-25T04:01:19.405Z,1000.68
2019-05-25T04:02:19.383Z,1000.71
2019-05-25T04:03:19.368Z,1000.68
2019-05-25T04:04:19.352Z,1000.65
2019-05-25T04:05:19.335Z,1000.72
2019-05-25T04:06:19.317Z,1000.71
2019-05-25T04:07:19.307Z,1000.76
2019-05-25T04:08:19.287Z,1000.76
2019-05-25T04:09:19.265Z,1000.76
2019-05-25T04:10:19.247Z,1000.73
2019-05-25T04:11:19.233Z,1000.73
2019-05-25T04:12:19.213Z,1000.76
2019-05-25T04:13:19.423Z,1000.76
2019-05-25T04:14:19.368Z,1000.76
2019-05-25T04:15:19.168Z,1000.73
2019-05-25T04:16:19.309Z,1000.78
2019-05-25T04:17:19.130Z,1000.81
2019-05-25T04:18:19.112Z,1000.85
2019-05-25T04:19:19.098Z,1000.78
2019-05-25T04:20:19.079Z,1000.77
2019-05-25T04:21:19.061Z,1000.78
2019-05-25T04:22:19.048Z,1000.81
2019-05-25T04:23:19.031Z,1000.79
2019-05-25T04:24:19.010Z,1000.82
2019-05-25T04:25:18.996Z,1000.82
2019-05-25T04:26:22.410Z,1000.85
2019-05-25T04:27:19.015Z,1000.92
2019-05-25T04:28:18.944Z,1000.88
2019-05-25T04:29:18.925Z,1000.83
2019-05-25T04:30:18.909Z,1000.88
2019-05-25T04:31:18.899Z,1000.84
2019-05-25T04:32:18.874Z,1000.83
2019-05-25T04:33:18.859Z,1000.86
2019-05-25T04:34:18.843Z,1000.87
2019-05-25T04:35:18.830Z,1000.89
2019-05-25T04:36:18.813Z,1000.91
2019-05-25T04:37:18.809Z,1000.91
2019-05-25T04:38:18.775Z,1000.92
2019-05-25T04:39:18.762Z,1000.87
2019-05-25T04:40:18.741Z,1000.94
2019-05-25T04:41:18.910Z,1000.96
2019-05-25T04:42:18.910Z,1000.97
2019-05-25T04:43:18.874Z,1000.96
2019-05-25T04:44:18.863Z,1000.98
2019-05-25T04:45:18.847Z,1001.00
2019-05-25T04:46:21.577Z,1001.01
2019-05-25T04:47:27.036Z,1001.03
2019-05-25T04:48:18.714Z,1001.03
2019-05-25T04:49:18.589Z,1000.97
2019-05-25T04:50:18.583Z,1000.99
2019-05-25T04:51:18.559Z,1000.98
2019-05-25T04:52:18.539Z,1001.02
2019-05-25T04:53:18.523Z,1001.01
2019-05-25T04:54:18.507Z,1000.99
2019-05-25T04:55:18.496Z,1001.00
2019-05-25T04:56:18.489Z,1001.03
2019-05-25T04:57:18.458Z,1001.03
2019-05-25T04:58:18.459Z,1001.00
2019-05-25T04:59:18.430Z,1001.01
2019-05-25T05:00:18.410Z,1001.04
2019-05-25T05:01:22.262Z,1001.03
2019-05-25T05:02:18.378Z,1001.00
2019-05-25T05:03:18.424Z,1001.00
2019-05-25T05:04:18.344Z,1001.02
2019-05-25T05:05:18.330Z,1001.00
2019-05-25T05:06:18.317Z,1001.02
2019-05-25T05:07:18.295Z,1001.03
2019-05-25T05:08:18.281Z,1001.03
2019-05-25T05:09:18.268Z,1001.05
2019-05-25T05:10:18.250Z,1001.07
2019-05-25T05:11:18.253Z,1001.10
2019-05-25T05:12:18.397Z,1001.10
2019-05-25T05:13:18.203Z,1001.14
2019-05-25T05:14:18.201Z,1001.11
2019-05-25T05:15:18.174Z,1001.15
2019-05-25T05:16:18.188Z,1001.14
2019-05-25T05:17:18.146Z,1001.15
2019-05-25T05:18:18.129Z,1001.16
2019-05-25T05:19:18.120Z,1001.14
2019-05-25T05:20:18.098Z,1001.12
2019-05-25T05:21:18.087Z,1001.14
2019-05-25T05:22:18.076Z,1001.17
2019-05-25T05:23:18.061Z,1001.20
2019-05-25T05:24:18.044Z,1001.20
2019-05-25T05:25:18.038Z,1001.18
2019-05-25T05:26:18.019Z,1001.18
2019-05-25T05:27:18.000Z,1001.23
2019-05-25T05:28:17.995Z,1001.21
2019-05-25T05:29:17.982Z,1001.24
2019-05-25T05:30:17.971Z,1001.26
2019-05-25T05:31:23.542Z,1001.25
2019-05-25T05:32:27.207Z,1001.26
2019-05-25T05:33:17.933Z,1001.23
2019-05-25T05:34:17.924Z,1001.24
2019-05-25T05:35:17.914Z,1001.23
2019-05-25T05:36:17.901Z,1001.23
2019-05-25T05:37:17.892Z,1001.20
2019-05-25T05:38:17.880Z,1001.25
2019-05-25T05:39:17.870Z,1001.25
2019-05-25T05:40:17.882Z,1001.24
2019-05-25T05:41:17.850Z,1001.26
2019-05-25T05:42:17.838Z,1001.29
2019-05-25T05:43:17.900Z,1001.30
2019-05-25T05:44:17.996Z,1001.30
2019-05-25T05:45:17.823Z,1001.31
2019-05-25T05:46:17.804Z,1001.31
2019-05-25T05:47:17.792Z,1001.30
2019-05-25T05:48:17.782Z,1001.33
2019-05-25T05:49:17.773Z,1001.31
2019-05-25T05:50:17.760Z,1001.36
2019-05-25T05:51:17.754Z,1001.34
2019-05-25T05:52:17.747Z,1001.31
2019-05-25T05:53:17.740Z,1001.33
2019-05-25T05:54:17.729Z,1001.38
2019-05-25T05:55:17.727Z,1001.36
2019-05-25T05:56:17.714Z,1001.35
2019-05-25T05:57:17.707Z,1001.37
2019-05-25T05:58:17.698Z,1001.39
2019-05-25T05:59:17.718Z,1001.42
2019-05-25T06:00:17.684Z,1001.38
2019-05-25T06:01:17.674Z,1001.37
2019-05-25T06:02:17.667Z,1001.38
2019-05-25T06:03:17.661Z,1001.41
2019-05-25T06:04:17.651Z,1001.38
2019-05-25T06:05:17.643Z,1001.38
2019-05-25T06:06:17.636Z,1001.36
2019-05-25T06:07:17.628Z,1001.40
2019-05-25T06:08:17.618Z,1001.42
2019-05-25T06:09:17.611Z,1001.40
2019-05-25T06:10:17.611Z,1001.44
2019-05-25T06:11:17.599Z,1001.44
2019-05-25T06:12:17.593Z,1001.51
2019-05-25T06:13:17.585Z,1001.45
2019-05-25T06:14:17.579Z,1001.42
2019-05-25T06:15:17.570Z,1001.47
2019-05-25T06:16:17.565Z,1001.43
2019-05-25T06:17:17.753Z,1001.46
2019-05-25T06:18:17.742Z,1001.45
2019-05-25T06:19:17.732Z,1001.45
2019-05-25T06:20:17.554Z,1001.49
2019-05-25T06:21:17.529Z,1001.48
2019-05-25T06:22:17.522Z,1001.48
2019-05-25T06:23:17.515Z,1001.51
2019-05-25T06:24:17.507Z,1001.51
2019-05-25T06:25:17.501Z,1001.49
2019-05-25T06:26:17.492Z,1001.53
2019-05-25T06:27:26.879Z,1001.53
2019-05-25T06:28:20.143Z,1001.56
2019-05-25T06:29:17.469Z,1001.57
2019-05-25T06:30:17.465Z,1001.62
2019-05-25T06:31:17.455Z,1001.61
2019-05-25T06:32:17.447Z,1001.65
2019-05-25T06:33:17.441Z,1001.65
2019-05-25T06:34:17.435Z,1001.72
2019-05-25T06:35:17.425Z,1001.69
2019-05-25T06:36:17.420Z,1001.71
2019-05-25T06:37:17.410Z,1001.70
2019-05-25T06:38:17.408Z,1001.75
2019-05-25T06:39:17.397Z,1001.75
2019-05-25T06:40:17.392Z,1001.77
2019-05-25T06:41:17.392Z,1001.75
2019-05-25T06:42:17.377Z,1001.77
2019-05-25T06:43:17.370Z,1001.70
2019-05-25T06:44:17.363Z,1001.75
2019-05-25T06:45:17.358Z,1001.75
2019-05-25T06:46:17.355Z,1001.74
2019-05-25T06:47:17.344Z,1001.76
2019-05-25T06:48:17.337Z,1001.76
2019-05-25T06:49:17.334Z,1001.73
2019-05-25T06:50:17.326Z,1001.73
2019-05-25T06:51:17.325Z,1001.75
2019-05-25T06:52:17.318Z,1001.75
2019-05-25T06:53:17.312Z,1001.74
2019-05-25T06:54:17.312Z,1001.70
2019-05-25T06:55:17.303Z,1001.72
2019-05-25T06:56:17.297Z,1001.74
2019-05-25T06:57:17.292Z,1001.75
2019-05-25T06:58:17.293Z,1001.73
2019-05-25T06:59:17.349Z,1001.75
2019-05-25T07:00:17.290Z,1001.75
2019-05-25T07:01:17.276Z,1001.76
2019-05-25T07:02:17.269Z,1001.78
2019-05-25T07:03:17.264Z,1001.77
2019-05-25T07:04:17.258Z,1001.78
2019-05-25T07:05:17.256Z,1001.79
2019-05-25T07:06:17.254Z,1001.82
2019-05-25T07:07:17.240Z,1001.83
2019-05-25T07:08:17.235Z,1001.83
2019-05-25T07:09:17.230Z,1001.83
2019-05-25T07:10:17.230Z,1001.85
2019-05-25T07:11:17.220Z,1001.83
2019-05-25T07:12:17.210Z,1001.83
2019-05-25T07:13:17.203Z,1001.81
2019-05-25T07:14:17.202Z,1001.82
2019-05-25T07:15:17.209Z,1001.84
2019-05-25T07:16:17.186Z,1001.83
2019-05-25T07:17:17.198Z,1001.83
2019-05-25T07:18:17.172Z,1001.82
2019-05-25T07:19:17.167Z,1001.80
2019-05-25T07:20:17.350Z,1001.84
2019-05-25T07:21:17.154Z,1001.84
2019-05-25T07:22:17.147Z,1001.83
2019-05-25T07:23:17.142Z,1001.89
2019-05-25T07:24:17.136Z,1001.86
2019-05-25T07:25:20.081Z,1001.89
2019-05-25T07:26:17.126Z,1001.90
2019-05-25T07:27:17.123Z,1001.93
2019-05-25T07:28:17.116Z,1001.92
2019-05-25T07:29:17.218Z,1001.92
2019-05-25T07:30:17.273Z,1001.88
2019-05-25T07:31:17.103Z,1001.89
2019-05-25T07:32:17.098Z,1001.88
2019-05-25T07:33:17.094Z,1001.90
2019-05-25T07:34:17.090Z,1001.91
2019-05-25T07:35:17.087Z,1001.89
2019-05-25T07:36:17.083Z,1001.90
2019-05-25T07:37:17.086Z,1001.92
2019-05-25T07:38:17.075Z,1001.94
2019-05-25T07:39:17.071Z,1001.96
2019-05-25T07:40:17.071Z,1001.93
2019-05-25T07:41:17.067Z,1002.00
2019-05-25T07:42:19.874Z,1001.94
2019-05-25T07:43:17.064Z,1001.94
2019-05-25T07:44:17.058Z,1001.96
2019-05-25T07:45:17.058Z,1001.95
2019-05-25T07:46:17.366Z,1001.96
2019-05-25T07:47:17.057Z,1001.99
2019-05-25T07:48:17.053Z,1002.02
2019-05-25T07:49:17.047Z,1002.02
2019-05-25T07:50:17.049Z,1001.97
2019-05-25T07:51:17.045Z,1002.00
2019-05-25T07:52:17.043Z,1001.97
2019-05-25T07:53:17.039Z,1001.97
2019-05-25T07:54:17.048Z,1001.97
2019-05-25T07:55:17.034Z,1001.95
2019-05-25T07:56:17.039Z,1001.96
2019-05-25T07:57:17.034Z,1001.96
2019-05-25T07:58:18.520Z,1001.92
2019-05-25T07:59:17.025Z,1001.98
2019-05-25T08:00:17.024Z,1002.01
2019-05-25T08:01:17.021Z,1002.04
2019-05-25T08:02:17.018Z,1002.00
2019-05-25T08:03:17.015Z,1002.02
2019-05-25T08:04:17.013Z,1002.00
2019-05-25T08:05:17.013Z,1002.01
2019-05-25T08:06:17.010Z,1002.00
2019-05-25T08:07:17.007Z,1002.01
2019-05-25T08:08:17.005Z,1002.02
2019-05-25T08:09:17.043Z,1002.00
2019-05-25T08:10:17.001Z,1002.01
2019-05-25T08:11:17.003Z,1001.93
2019-05-25T08:12:17.001Z,1001.98
2019-05-25T08:13:17.000Z,1001.98
2019-05-25T08:14:16.992Z,1002.03
2019-05-25T08:15:16.995Z,1002.01
2019-05-25T08:16:16.990Z,1001.96
2019-05-25T08:17:16.992Z,1002.03
2019-05-25T08:18:17.009Z,1001.99
2019-05-25T08:19:16.987Z,1002.03
2019-05-25T08:20:16.985Z,1002.06
2019-05-25T08:21:16.982Z,1002.05
2019-05-25T08:22:16.983Z,1002.02
2019-05-25T08:23:16.983Z,1002.06
2019-05-25T08:24:16.981Z,1002.02
2019-05-25T08:25:16.981Z,1002.07
2019-05-25T08:26:17.179Z,1002.05
2019-05-25T08:27:16.988Z,1002.11
2019-05-25T08:28:31.777Z,1002.10
2019-05-25T08:29:16.981Z,1002.08
2019-05-25T08:30:16.985Z,1002.11
2019-05-25T08:31:16.982Z,1002.11
2019-05-25T08:32:16.986Z,1002.12
2019-05-25T08:33:16.984Z,1002.09
2019-05-25T08:34:16.985Z,1002.07
2019-05-25T08:35:16.981Z,1002.07
2019-05-25T08:36:16.983Z,1002.07
2019-05-25T08:37:16.984Z,1002.09
2019-05-25T08:38:16.984Z,1002.08
2019-05-25T08:39:16.985Z,1002.05
2019-05-25T08:40:16.989Z,1002.06
2019-05-25T08:41:17.042Z,1002.07
2019-05-25T08:42:16.990Z,1002.03
2019-05-25T08:43:16.987Z,1002.04
2019-05-25T08:44:16.990Z,1002.04
2019-05-25T08:45:16.987Z,1002.02
2019-05-25T08:46:16.990Z,1002.03
2019-05-25T08:47:16.998Z,1002.04
2019-05-25T08:48:16.992Z,1002.00
2019-05-25T08:49:16.988Z,1002.02
2019-05-25T08:50:16.990Z,1002.00
2019-05-25T08:51:16.990Z,1002.04
2019-05-25T08:52:16.989Z,1002.12
2019-05-25T08:53:16.989Z,1002.05
2019-05-25T08:54:16.990Z,1002.07
2019-05-25T08:55:16.999Z,1002.02
2019-05-25T08:56:17.030Z,1002.04
2019-05-25T08:57:18.709Z,1002.00
2019-05-25T08:58:17.001Z,1002.05
2019-05-25T08:59:17.001Z,1002.09
2019-05-25T09:00:16.999Z,1002.07
2019-05-25T09:01:17.000Z,1002.04
2019-05-25T09:02:17.005Z,1001.93
2019-05-25T09:03:17.021Z,1002.00
2019-05-25T09:04:17.010Z,1002.02
2019-05-25T09:05:17.097Z,1002.00
2019-05-25T09:06:17.016Z,1001.95
2019-05-25T09:07:17.021Z,1001.99
2019-05-25T09:08:17.022Z,1001.99
2019-05-25T09:09:17.027Z,1002.02
2019-05-25T09:10:17.053Z,1002.02
2019-05-25T09:11:17.037Z,1001.97
2019-05-25T09:12:17.041Z,1002.01
2019-05-25T09:13:17.044Z,1002.10
2019-05-25T09:14:17.046Z,1002.13
2019-05-25T09:15:17.311Z,1002.11
2019-05-25T09:16:17.059Z,1002.13
2019-05-25T09:17:17.074Z,1002.07
2019-05-25T09:18:17.068Z,1002.10
2019-05-25T09:19:17.067Z,1002.13
2019-05-25T09:20:17.071Z,1002.12
2019-05-25T09:21:17.074Z,1002.08
2019-05-25T09:22:17.076Z,1002.13
2019-05-25T09:23:17.080Z,1002.13
2019-05-25T09:24:17.090Z,1002.14
2019-05-25T09:25:17.150Z,1002.14
2019-05-25T09:26:17.093Z,1002.16
2019-05-25T09:27:17.096Z,1002.17
2019-05-25T09:28:17.101Z,1002.14
2019-05-25T09:29:17.104Z,1002.14
2019-05-25T09:30:17.109Z,1002.15
2019-05-25T09:31:17.196Z,1002.13
2019-05-25T09:32:17.117Z,1002.14
2019-05-25T09:33:17.120Z,1002.11
2019-05-25T09:34:17.126Z,1002.13
2019-05-25T09:35:17.152Z,1002.14
2019-05-25T09:36:17.133Z,1002.15
2019-05-25T09:37:17.136Z,1002.18
2019-05-25T09:38:17.328Z,1002.12
2019-05-25T09:39:17.145Z,1002.10
2019-05-25T09:40:17.369Z,1002.08
2019-05-25T09:41:17.333Z,1002.16
2019-05-25T09:42:17.345Z,1002.18
2019-05-25T09:43:17.351Z,1002.14
2019-05-25T09:44:17.166Z,1002.15
2019-05-25T09:45:17.167Z,1002.14
2019-05-25T09:46:17.168Z,1002.15
2019-05-25T09:47:17.174Z,1002.20
2019-05-25T09:48:17.176Z,1002.18
2019-05-25T09:49:17.183Z,1002.20
2019-05-25T09:50:17.191Z,1002.26
2019-05-25T09:51:17.185Z,1002.19
2019-05-25T09:52:17.194Z,1002.16
2019-05-25T09:53:17.194Z,1002.15
2019-05-25T09:54:17.201Z,1002.13
2019-05-25T09:55:17.211Z,1002.14
2019-05-25T09:56:17.225Z,1002.09
2019-05-25T09:57:17.212Z,1002.07
2019-05-25T09:58:17.216Z,1002.07
2019-05-25T09:59:20.096Z,1002.06
2019-05-25T10:00:17.318Z,1002.09
2019-05-25T10:01:17.231Z,1002.04
2019-05-25T10:02:17.289Z,1002.10
2019-05-25T10:03:17.242Z,1002.11
2019-05-25T10:04:17.242Z,1002.08
2019-05-25T10:05:17.247Z,1002.10
2019-05-25T10:06:17.254Z,1002.10
2019-05-25T10:07:17.259Z,1002.04
2019-05-25T10:08:17.262Z,1002.12
2019-05-25T10:09:17.272Z,1002.06
2019-05-25T10:10:17.261Z,1002.03
2019-05-25T10:11:17.274Z,1002.01
2019-05-25T10:12:17.281Z,1002.06
2019-05-25T10:13:17.283Z,1002.03
2019-05-25T10:14:17.469Z,1002.09
2019-05-25T10:15:17.291Z,1002.07
2019-05-25T10:16:17.487Z,1002.12
2019-05-25T10:17:17.291Z,1002.11
2019-05-25T10:18:17.301Z,1002.08
2019-05-25T10:19:17.307Z,1002.08
2019-05-25T10:20:17.306Z,1002.08
2019-05-25T10:21:17.315Z,1002.09
2019-05-25T10:22:17.313Z,1002.18
2019-05-25T10:23:17.317Z,1002.18
2019-05-25T10:24:17.330Z,1002.19
2019-05-25T10:25:17.325Z,1002.22
2019-05-25T10:26:17.327Z,1002.16
2019-05-25T10:27:17.331Z,1002.16
2019-05-25T10:28:17.336Z,1002.20
2019-05-25T10:29:17.339Z,1002.18
2019-05-25T10:30:17.347Z,1002.18
2019-05-25T10:31:17.353Z,1002.22
2019-05-25T10:32:17.348Z,1002.11
2019-05-25T10:33:17.353Z,1002.11
2019-05-25T10:34:17.355Z,1002.08
2019-05-25T10:35:17.553Z,1002.05
2019-05-25T10:36:17.557Z,1002.00
2019-05-25T10:37:17.554Z,1002.00
2019-05-25T10:38:17.555Z,1001.97
2019-05-25T10:39:17.371Z,1001.95
2019-05-25T10:40:17.373Z,1001.94
2019-05-25T10:41:17.377Z,1001.87
2019-05-25T10:42:17.380Z,1001.87
2019-05-25T10:43:17.380Z,1001.89
2019-05-25T10:44:17.383Z,1001.90
2019-05-25T10:45:17.409Z,1001.90
2019-05-25T10:46:17.392Z,1001.92
2019-05-25T10:47:17.394Z,1001.88
2019-05-25T10:48:17.395Z,1001.86
2019-05-25T10:49:17.400Z,1001.89
2019-05-25T10:50:17.399Z,1001.89
2019-05-25T10:51:17.406Z,1001.92
2019-05-25T10:52:17.414Z,1001.88
2019-05-25T10:53:17.411Z,1001.92
2019-05-25T10:54:17.413Z,1001.85
2019-05-25T10:55:17.416Z,1001.78
2019-05-25T10:56:17.423Z,1001.78
2019-05-25T10:57:17.423Z,1001.80
2019-05-25T10:58:17.427Z,1001.85
2019-05-25T10:59:17.429Z,1001.78
2019-05-25T11:00:17.431Z,1001.83
2019-05-25T11:01:17.437Z,1001.79
2019-05-25T11:02:17.443Z,1001.81
2019-05-25T11:03:17.445Z,1001.81
2019-05-25T11:04:17.448Z,1001.80
2019-05-25T11:05:17.455Z,1001.81
2019-05-25T11:06:17.518Z,1001.74
2019-05-25T11:07:17.458Z,1001.71
2019-05-25T11:08:17.459Z,1001.73
2019-05-25T11:09:17.463Z,1001.75
2019-05-25T11:10:17.468Z,1001.75
2019-05-25T11:11:17.472Z,1001.73
2019-05-25T11:12:17.472Z,1001.75
2019-05-25T11:13:17.478Z,1001.74
2019-05-25T11:14:17.485Z,1001.64
2019-05-25T11:15:17.482Z,1001.52
2019-05-25T11:16:17.483Z,1001.54
2019-05-25T11:17:17.516Z,1001.49
2019-05-25T11:18:17.494Z,1001.54
2019-05-25T11:19:17.494Z,1001.54
2019-05-25T11:20:17.512Z,1001.75
2019-05-25T11:21:17.496Z,1001.71
2019-05-25T11:22:17.505Z,1001.70
2019-05-25T11:23:17.504Z,1001.65
2019-05-25T11:24:17.633Z,1001.65
2019-05-25T11:25:17.693Z,1001.62
2019-05-25T11:26:17.692Z,1001.60
2019-05-25T11:27:17.517Z,1001.58
2019-05-25T11:28:17.642Z,1001.54
2019-05-25T11:29:17.509Z,1001.60
2019-05-25T11:30:17.509Z,1001.58
2019-05-25T11:31:17.506Z,1001.53
2019-05-25T11:32:17.507Z,1001.50
2019-05-25T11:33:17.666Z,1001.45
2019-05-25T11:34:17.706Z,1001.48
2019-05-25T11:35:17.511Z,1001.48
2019-05-25T11:36:17.511Z,1001.51
2019-05-25T11:37:17.515Z,1001.48
2019-05-25T11:38:17.513Z,1001.45
2019-05-25T11:39:17.515Z,1001.52
2019-05-25T11:40:17.521Z,1001.47
2019-05-25T11:41:17.512Z,1001.51
2019-05-25T11:42:17.521Z,1001.47
2019-05-25T11:43:17.522Z,1001.42
2019-05-25T11:44:17.523Z,1001.48
2019-05-25T11:45:17.711Z,1001.46
2019-05-25T11:46:17.707Z,1001.48
2019-05-25T11:47:17.718Z,1001.48
2019-05-25T11:48:17.718Z,1001.44
2019-05-25T11:49:22.418Z,1001.49
2019-05-25T11:50:17.534Z,1001.41
2019-05-25T11:51:17.724Z,1001.50
2019-05-25T11:52:17.536Z,1001.39
2019-05-25T11:53:17.537Z,1001.45
2019-05-25T11:54:17.541Z,1001.49
2019-05-25T11:55:17.538Z,1001.43
2019-05-25T11:56:17.543Z,1001.39
2019-05-25T11:57:17.545Z,1001.23
2019-05-25T11:58:17.556Z,1001.23
2019-05-25T11:59:17.605Z,1001.24
2019-05-25T12:00:25.085Z,1001.18
2019-05-25T12:01:17.753Z,1001.16
2019-05-25T12:02:17.556Z,1001.15
2019-05-25T12:03:17.558Z,1001.15
2019-05-25T12:04:17.557Z,1001.16
2019-05-25T12:05:17.558Z,1001.18